sensor_id;sensor_type;location;lat;lon;timestamp;pressure;altitude;pressure_sealevel;temperature;humidity
15229;BME280;7717;47.792;12.076;2023-02-11T00:01:24;98126.66;;;-5.00;nan
15229;BME280;7717;47.792;12.076;2023-02-11T00:03:51;98114.38;;;-5.07;nan
15229;BME280;7717;47.792;12.076;2023-02-11T00:06:16;98130.91;;;-4.99;nan
15229;BME280;7717;47.792;12.076;2023-02-11T00:08:42;98123.25;;;-5.11;nan
15229;BME280;7717;47.792;12.076;2023-02-11T00:11:11;98121.03;;;-4.97;nan
15229;BME280;7717;47.792;12.076;2023-02-11T00:13:37;98136.00;;;-4.78;nan
15229;BME280;7717;47.792;12.076;2023-02-11T00:16:15;98119.00;;;-4.82;nan
15229;BME280;7717;47.792;12.076;2023-02-11T00:18:40;98126.31;;;-4.94;nan
15229;BME280;7717;47.792;12.076;2023-02-11T00:21:14;98121.13;;;-4.87;nan
15229;BME280;7717;47.792;12.076;2023-02-11T00:23:40;98119.03;;;-5.01;nan
15229;BME280;7717;47.792;12.076;2023-02-11T00:26:20;98123.94;;;-4.93;nan
15229;BME280;7717;47.792;12.076;2023-02-11T00:28:46;98119.41;;;-4.78;nan
15229;BME280;7717;47.792;12.076;2023-02-11T00:31:13;98118.22;;;-4.92;nan
15229;BME280;7717;47.792;12.076;2023-02-11T00:33:39;98111.25;;;-4.85;nan
15229;BME280;7717;47.792;12.076;2023-02-11T00:36:07;98113.88;;;-4.84;nan
15229;BME280;7717;47.792;12.076;2023-02-11T00:38:34;98107.03;;;-5.06;nan
15229;BME280;7717;47.792;12.076;2023-02-11T00:40:59;98100.69;;;-5.21;nan
15229;BME280;7717;47.792;12.076;2023-02-11T00:43:24;98100.44;;;-5.24;nan
15229;BME280;7717;47.792;12.076;2023-02-11T00:45:50;98100.44;;;-5.24;nan
15229;BME280;7717;47.792;12.076;2023-02-11T00:48:16;98087.56;;;-5.29;nan
15229;BME280;7717;47.792;12.076;2023-02-11T00:50:41;98104.34;;;-5.36;nan
15229;BME280;7717;47.792;12.076;2023-02-11T00:53:06;98082.56;;;-5.48;nan
15229;BME280;7717;47.792;12.076;2023-02-11T00:55:32;98101.59;;;-5.39;nan
15229;BME280;7717;47.792;12.076;2023-02-11T00:57:58;98108.66;;;-5.44;nan
15229;BME280;7717;47.792;12.076;2023-02-11T01:00:25;98117.59;;;-5.37;nan
15229;BME280;7717;47.792;12.076;2023-02-11T01:02:54;98106.25;;;-5.34;nan
15229;BME280;7717;47.792;12.076;2023-02-11T01:05:20;98091.47;;;-5.60;nan
15229;BME280;7717;47.792;12.076;2023-02-11T01:07:45;98091.94;;;-5.64;nan
15229;BME280;7717;47.792;12.076;2023-02-11T01:10:14;98107.84;;;-5.72;nan
15229;BME280;7717;47.792;12.076;2023-02-11T01:12:39;98095.09;;;-5.75;nan
15229;BME280;7717;47.792;12.076;2023-02-11T01:15:06;98114.25;;;-5.66;nan
15229;BME280;7717;47.792;12.076;2023-02-11T01:17:32;98099.22;;;-5.76;nan
15229;BME280;7717;47.792;12.076;2023-02-11T01:19:58;98110.28;;;-5.64;nan
15229;BME280;7717;47.792;12.076;2023-02-11T01:22:23;98105.06;;;-5.75;nan
15229;BME280;7717;47.792;12.076;2023-02-11T01:24:48;98112.38;;;-5.68;nan
15229;BME280;7717;47.792;12.076;2023-02-11T01:27:14;98107.56;;;-5.75;nan
15229;BME280;7717;47.792;12.076;2023-02-11T01:29:39;98112.16;;;-5.61;nan
15229;BME280;7717;47.792;12.076;2023-02-11T01:32:04;98112.25;;;-5.51;nan
15229;BME280;7717;47.792;12.076;2023-02-11T01:34:30;98107.41;;;-5.49;nan
15229;BME280;7717;47.792;12.076;2023-02-11T01:36:57;98106.25;;;-5.34;nan
15229;BME280;7717;47.792;12.076;2023-02-11T01:39:23;98106.16;;;-5.44;nan
15229;BME280;7717;47.792;12.076;2023-02-11T01:41:49;98102.72;;;-5.55;nan
15229;BME280;7717;47.792;12.076;2023-02-11T01:44:31;98097.69;;;-5.65;nan
15229;BME280;7717;47.792;12.076;2023-02-11T01:46:58;98097.88;;;-5.72;nan
15229;BME280;7717;47.792;12.076;2023-02-11T01:49:29;98084.13;;;-5.78;nan
15229;BME280;7717;47.792;12.076;2023-02-11T01:52:03;98090.59;;;-5.80;nan
15229;BME280;7717;47.792;12.076;2023-02-11T01:54:34;98088.97;;;-5.98;nan
15229;BME280;7717;47.792;12.076;2023-02-11T01:57:23;98090.22;;;-5.93;nan
15229;BME280;7717;47.792;12.076;2023-02-11T02:00:22;98087.56;;;-5.86;nan
15229;BME280;7717;47.792;12.076;2023-02-11T02:03:09;98091.59;;;-5.97;nan
15229;BME280;7717;47.792;12.076;2023-02-11T02:05:59;98083.91;;;-6.08;nan
15229;BME280;7717;47.792;12.076;2023-02-11T02:08:31;98082.41;;;-6.06;nan
15229;BME280;7717;47.792;12.076;2023-02-11T02:10:59;98085.25;;;-6.12;nan
15229;BME280;7717;47.792;12.076;2023-02-11T02:13:30;98087.81;;;-6.02;nan
15229;BME280;7717;47.792;12.076;2023-02-11T02:16:02;98084.22;;;-5.95;nan
15229;BME280;7717;47.792;12.076;2023-02-11T02:21:38;98086.34;;;-6.00;nan
15229;BME280;7717;47.792;12.076;2023-02-11T02:40:55;98066.56;;;-6.35;nan
15229;BME280;7717;47.792;12.076;2023-02-11T02:43:25;98059.25;;;-6.33;nan
15229;BME280;7717;47.792;12.076;2023-02-11T02:45:51;98056.19;;;-6.39;nan
15229;BME280;7717;47.792;12.076;2023-02-11T02:48:28;98058.06;;;-6.28;nan
15229;BME280;7717;47.792;12.076;2023-02-11T03:02:19;98058.91;;;-6.19;nan
15229;BME280;7717;47.792;12.076;2023-02-11T03:04:56;98052.88;;;-6.21;nan
15229;BME280;7717;47.792;12.076;2023-02-11T03:10:02;98069.72;;;-6.18;nan
15229;BME280;7717;47.792;12.076;2023-02-11T03:12:32;98061.13;;;-6.22;nan
15229;BME280;7717;47.792;12.076;2023-02-11T03:15:02;98060.06;;;-6.24;nan
15229;BME280;7717;47.792;12.076;2023-02-11T03:17:31;98049.63;;;-6.39;nan
15229;BME280;7717;47.792;12.076;2023-02-11T03:19:59;98064.56;;;-6.39;nan
15229;BME280;7717;47.792;12.076;2023-02-11T03:22:57;98053.56;;;-6.41;nan
15229;BME280;7717;47.792;12.076;2023-02-11T03:25:31;98043.72;;;-6.30;nan
15229;BME280;7717;47.792;12.076;2023-02-11T03:28:02;98048.25;;;-6.26;nan
15229;BME280;7717;47.792;12.076;2023-02-11T03:30:35;98060.16;;;-6.41;nan
15229;BME280;7717;47.792;12.076;2023-02-11T03:33:23;98059.66;;;-6.56;nan
15229;BME280;7717;47.792;12.076;2023-02-11T03:35:57;98049.38;;;-6.51;nan
15229;BME280;7717;47.792;12.076;2023-02-11T03:38:32;98054.34;;;-6.51;nan
15229;BME280;7717;47.792;12.076;2023-02-11T03:41:01;98038.47;;;-6.70;nan
15229;BME280;7717;47.792;12.076;2023-02-11T03:43:54;98057.59;;;-6.52;nan
15229;BME280;7717;47.792;12.076;2023-02-11T03:46:31;98037.06;;;-6.85;nan
15229;BME280;7717;47.792;12.076;2023-02-11T03:49:08;98038.19;;;-6.73;nan
15229;BME280;7717;47.792;12.076;2023-02-11T03:51:36;98044.16;;;-6.62;nan
15229;BME280;7717;47.792;12.076;2023-02-11T03:54:08;98033.31;;;-6.63;nan
15229;BME280;7717;47.792;12.076;2023-02-11T03:56:40;98028.50;;;-6.70;nan
15229;BME280;7717;47.792;12.076;2023-02-11T03:59:07;98022.63;;;-6.71;nan
15229;BME280;7717;47.792;12.076;2023-02-11T04:01:33;98033.03;;;-6.66;nan
15229;BME280;7717;47.792;12.076;2023-02-11T04:03:59;98018.22;;;-6.64;nan
15229;BME280;7717;47.792;12.076;2023-02-11T04:06:24;98008.50;;;-6.53;nan
15229;BME280;7717;47.792;12.076;2023-02-11T04:08:49;98013.03;;;-6.48;nan
15229;BME280;7717;47.792;12.076;2023-02-11T04:11:15;98010.66;;;-6.47;nan
15229;BME280;7717;47.792;12.076;2023-02-11T04:13:40;98003.16;;;-6.38;nan
15229;BME280;7717;47.792;12.076;2023-02-11T04:16:06;98005.50;;;-6.40;nan
15229;BME280;7717;47.792;12.076;2023-02-11T04:18:31;98008.53;;;-6.34;nan
15229;BME280;7717;47.792;12.076;2023-02-11T04:20:56;98005.47;;;-6.31;nan
15229;BME280;7717;47.792;12.076;2023-02-11T04:23:25;98007.44;;;-5.99;nan
15229;BME280;7717;47.792;12.076;2023-02-11T04:25:50;97994.81;;;-5.82;nan
15229;BME280;7717;47.792;12.076;2023-02-11T04:28:16;97975.75;;;-4.83;nan
15229;BME280;7717;47.792;12.076;2023-02-11T04:30:41;97972.09;;;-4.47;nan
15229;BME280;7717;47.792;12.076;2023-02-11T04:33:06;97975.03;;;-4.72;nan
15229;BME280;7717;47.792;12.076;2023-02-11T04:35:32;97969.16;;;-4.72;nan
15229;BME280;7717;47.792;12.076;2023-02-11T04:37:57;97968.31;;;-4.62;nan
15229;BME280;7717;47.792;12.076;2023-02-11T04:40:23;97979.53;;;-4.78;nan
15229;BME280;7717;47.792;12.076;2023-02-11T04:42:48;97989.91;;;-4.63;nan
15229;BME280;7717;47.792;12.076;2023-02-11T04:45:13;97983.50;;;-4.80;nan
15229;BME280;7717;47.792;12.076;2023-02-11T04:47:39;97982.88;;;-4.88;nan
15229;BME280;7717;47.792;12.076;2023-02-11T04:50:05;97988.16;;;-4.74;nan
15229;BME280;7717;47.792;12.076;2023-02-11T04:52:30;97976.78;;;-4.81;nan
15229;BME280;7717;47.792;12.076;2023-02-11T04:54:55;97978.06;;;-4.65;nan
15229;BME280;7717;47.792;12.076;2023-02-11T04:57:21;97982.94;;;-4.46;nan
15229;BME280;7717;47.792;12.076;2023-02-11T04:59:46;97977.53;;;-4.72;nan
15229;BME280;7717;47.792;12.076;2023-02-11T05:02:13;97980.56;;;-4.65;nan
15229;BME280;7717;47.792;12.076;2023-02-11T05:04:38;97974.56;;;-4.57;nan
15229;BME280;7717;47.792;12.076;2023-02-11T05:07:03;97976.16;;;-4.68;nan
15229;BME280;7717;47.792;12.076;2023-02-11T05:09:29;97985.13;;;-4.80;nan
15229;BME280;7717;47.792;12.076;2023-02-11T05:11:54;97983.19;;;-5.14;nan
15229;BME280;7717;47.792;12.076;2023-02-11T05:14:20;97995.47;;;-5.26;nan
15229;BME280;7717;47.792;12.076;2023-02-11T05:16:45;97999.56;;;-5.55;nan
15229;BME280;7717;47.792;12.076;2023-02-11T05:19:11;98015.53;;;-5.53;nan
15229;BME280;7717;47.792;12.076;2023-02-11T05:21:38;98005.13;;;-5.87;nan
15229;BME280;7717;47.792;12.076;2023-02-11T05:24:05;98031.06;;;-5.85;nan
15229;BME280;7717;47.792;12.076;2023-02-11T05:26:31;98030.97;;;-5.96;nan
15229;BME280;7717;47.792;12.076;2023-02-11T05:28:56;98028.47;;;-6.06;nan
15229;BME280;7717;47.792;12.076;2023-02-11T05:31:22;98034.13;;;-5.98;nan
15229;BME280;7717;47.792;12.076;2023-02-11T05:33:48;98022.53;;;-5.98;nan
15229;BME280;7717;47.792;12.076;2023-02-11T05:36:13;98035.59;;;-6.00;nan
15229;BME280;7717;47.792;12.076;2023-02-11T05:38:39;98049.81;;;-5.99;nan
15229;BME280;7717;47.792;12.076;2023-02-11T05:41:05;98055.50;;;-6.19;nan
15229;BME280;7717;47.792;12.076;2023-02-11T05:43:31;98049.00;;;-6.08;nan
15229;BME280;7717;47.792;12.076;2023-02-11T05:45:56;98063.09;;;-6.09;nan
15229;BME280;7717;47.792;12.076;2023-02-11T05:48:22;98029.03;;;-6.27;nan
15229;BME280;7717;47.792;12.076;2023-02-11T05:50:50;98057.81;;;-6.12;nan
15229;BME280;7717;47.792;12.076;2023-02-11T05:53:15;98050.16;;;-5.86;nan
15229;BME280;7717;47.792;12.076;2023-02-11T05:55:41;98037.59;;;-5.96;nan
15229;BME280;7717;47.792;12.076;2023-02-11T05:58:06;98051.44;;;-5.81;nan
15229;BME280;7717;47.792;12.076;2023-02-11T06:00:33;98048.38;;;-5.87;nan
15229;BME280;7717;47.792;12.076;2023-02-11T06:02:59;98065.56;;;-5.90;nan
15229;BME280;7717;47.792;12.076;2023-02-11T06:05:24;98050.47;;;-5.91;nan
15229;BME280;7717;47.792;12.076;2023-02-11T06:07:53;98045.91;;;-5.87;nan
15229;BME280;7717;47.792;12.076;2023-02-11T06:10:18;98041.25;;;-5.73;nan
15229;BME280;7717;47.792;12.076;2023-02-11T06:12:43;98047.59;;;-5.39;nan
15229;BME280;7717;47.792;12.076;2023-02-11T06:15:09;98036.47;;;-5.13;nan
15229;BME280;7717;47.792;12.076;2023-02-11T06:17:34;98014.88;;;-5.13;nan
15229;BME280;7717;47.792;12.076;2023-02-11T06:20:01;98010.72;;;-4.83;nan
15229;BME280;7717;47.792;12.076;2023-02-11T06:22:27;97993.28;;;-4.73;nan
15229;BME280;7717;47.792;12.076;2023-02-11T06:24:53;97997.94;;;-4.46;nan
15229;BME280;7717;47.792;12.076;2023-02-11T06:27:18;98003.81;;;-4.36;nan
15229;BME280;7717;47.792;12.076;2023-02-11T06:29:44;97999.34;;;-4.29;nan
15229;BME280;7717;47.792;12.076;2023-02-11T06:32:10;98012.34;;;-4.23;nan
15229;BME280;7717;47.792;12.076;2023-02-11T06:34:36;98017.34;;;-4.03;nan
15229;BME280;7717;47.792;12.076;2023-02-11T06:37:01;98009.94;;;-3.81;nan
15229;BME280;7717;47.792;12.076;2023-02-11T06:39:27;98015.38;;;-3.54;nan
15229;BME280;7717;47.792;12.076;2023-02-11T06:41:53;98000.84;;;-3.48;nan
15229;BME280;7717;47.792;12.076;2023-02-11T06:44:18;97998.47;;;-3.36;nan
15229;BME280;7717;47.792;12.076;2023-02-11T06:46:44;97988.31;;;-3.37;nan
15229;BME280;7717;47.792;12.076;2023-02-11T06:49:09;97998.25;;;-3.17;nan
15229;BME280;7717;47.792;12.076;2023-02-11T06:51:35;97973.06;;;-2.86;nan
15229;BME280;7717;47.792;12.076;2023-02-11T06:54:00;97943.09;;;-2.17;nan
15229;BME280;7717;47.792;12.076;2023-02-11T06:56:29;97951.31;;;-2.07;nan
15229;BME280;7717;47.792;12.076;2023-02-11T06:58:55;97958.53;;;-1.65;nan
15229;BME280;7717;47.792;12.076;2023-02-11T07:01:22;97940.84;;;-1.31;nan
15229;BME280;7717;47.792;12.076;2023-02-11T07:03:48;97944.75;;;-1.22;nan
15229;BME280;7717;47.792;12.076;2023-02-11T07:06:16;97952.84;;;-1.27;nan
15229;BME280;7717;47.792;12.076;2023-02-11T07:08:46;97958.34;;;-0.95;nan
15229;BME280;7717;47.792;12.076;2023-02-11T07:11:16;97975.38;;;-0.91;nan
15229;BME280;7717;47.792;12.076;2023-02-11T07:13:43;97966.13;;;-0.67;nan
15229;BME280;7717;47.792;12.076;2023-02-11T07:16:11;97983.88;;;-0.52;nan
15229;BME280;7717;47.792;12.076;2023-02-11T07:18:37;97980.50;;;-0.52;nan
15229;BME280;7717;47.792;12.076;2023-02-11T07:21:09;97980.69;;;-0.75;nan
15229;BME280;7717;47.792;12.076;2023-02-11T07:23:35;97992.22;;;-0.90;nan
15229;BME280;7717;47.792;12.076;2023-02-11T07:26:09;97988.25;;;-0.86;nan
15229;BME280;7717;47.792;12.076;2023-02-11T07:28:36;97981.81;;;-0.83;nan
15229;BME280;7717;47.792;12.076;2023-02-11T07:31:11;97966.97;;;-0.55;nan
15229;BME280;7717;47.792;12.076;2023-02-11T07:33:37;97960.53;;;-0.38;nan
15229;BME280;7717;47.792;12.076;2023-02-11T07:36:04;97973.63;;;-0.30;nan
15229;BME280;7717;47.792;12.076;2023-02-11T07:38:31;97969.19;;;-0.21;nan
15229;BME280;7717;47.792;12.076;2023-02-11T07:41:02;97980.41;;;-0.29;nan
15229;BME280;7717;47.792;12.076;2023-02-11T07:43:27;97990.03;;;-0.48;nan
15229;BME280;7717;47.792;12.076;2023-02-11T07:45:53;97985.13;;;-0.59;nan
15229;BME280;7717;47.792;12.076;2023-02-11T07:48:18;98011.34;;;-0.55;nan
15229;BME280;7717;47.792;12.076;2023-02-11T07:50:44;97991.22;;;-0.55;nan
15229;BME280;7717;47.792;12.076;2023-02-11T07:53:09;98000.66;;;-0.64;nan
15229;BME280;7717;47.792;12.076;2023-02-11T07:55:35;97982.19;;;-0.40;nan
15229;BME280;7717;47.792;12.076;2023-02-11T07:58:00;97954.78;;;-0.23;nan
15229;BME280;7717;47.792;12.076;2023-02-11T08:00:25;97970.31;;;-0.42;nan
15229;BME280;7717;47.792;12.076;2023-02-11T08:02:51;97970.09;;;-0.07;nan
15229;BME280;7717;47.792;12.076;2023-02-11T08:05:16;97961.59;;;0.05;nan
15229;BME280;7717;47.792;12.076;2023-02-11T08:07:41;97980.66;;;0.40;nan
15229;BME280;7717;47.792;12.076;2023-02-11T08:10:07;97969.50;;;0.49;nan
15229;BME280;7717;47.792;12.076;2023-02-11T08:12:32;97964.94;;;0.57;nan
15229;BME280;7717;47.792;12.076;2023-02-11T08:14:58;97947.88;;;0.80;nan
15229;BME280;7717;47.792;12.076;2023-02-11T08:17:23;97934.31;;;1.19;nan
15229;BME280;7717;47.792;12.076;2023-02-11T08:19:49;97928.41;;;1.19;nan
15229;BME280;7717;47.792;12.076;2023-02-11T08:22:14;97913.19;;;1.32;nan
15229;BME280;7717;47.792;12.076;2023-02-11T08:24:39;97873.63;;;1.31;nan
15229;BME280;7717;47.792;12.076;2023-02-11T08:27:04;97841.09;;;1.36;nan
15229;BME280;7717;47.792;12.076;2023-02-11T08:29:32;97821.09;;;1.39;nan
15229;BME280;7717;47.792;12.076;2023-02-11T08:31:58;97798.22;;;1.51;nan
15229;BME280;7717;47.792;12.076;2023-02-11T08:34:23;97806.91;;;1.56;nan
15229;BME280;7717;47.792;12.076;2023-02-11T08:36:48;97798.41;;;1.54;nan
15229;BME280;7717;47.792;12.076;2023-02-11T08:39:16;97786.59;;;1.84;nan
15229;BME280;7717;47.792;12.076;2023-02-11T08:41:42;97810.81;;;1.80;nan
15229;BME280;7717;47.792;12.076;2023-02-11T08:44:08;97829.56;;;2.15;nan
15229;BME280;7717;47.792;12.076;2023-02-11T08:46:34;97796.63;;;2.14;nan
15229;BME280;7717;47.792;12.076;2023-02-11T08:48:59;97794.25;;;2.01;nan
15229;BME280;7717;47.792;12.076;2023-02-11T08:51:27;97814.66;;;2.20;nan
15229;BME280;7717;47.792;12.076;2023-02-11T08:53:55;97811.34;;;1.60;nan
15229;BME280;7717;47.792;12.076;2023-02-11T08:56:21;97825.41;;;2.16;nan
15229;BME280;7717;47.792;12.076;2023-02-11T08:58:48;97795.41;;;2.54;nan
15229;BME280;7717;47.792;12.076;2023-02-11T09:01:20;97771.31;;;2.77;nan
15229;BME280;7717;47.792;12.076;2023-02-11T09:03:45;97774.38;;;3.04;nan
15229;BME280;7717;47.792;12.076;2023-02-11T09:06:13;97802.97;;;3.19;nan
15229;BME280;7717;47.792;12.076;2023-02-11T09:08:40;97790.56;;;3.24;nan
15229;BME280;7717;47.792;12.076;2023-02-11T09:11:07;97797.44;;;3.10;nan
15229;BME280;7717;47.792;12.076;2023-02-11T09:13:33;97790.97;;;2.99;nan
15229;BME280;7717;47.792;12.076;2023-02-11T09:16:00;97783.09;;;2.93;nan
15229;BME280;7717;47.792;12.076;2023-02-11T09:18:26;97761.72;;;3.04;nan
15229;BME280;7717;47.792;12.076;2023-02-11T09:20:57;97754.66;;;3.15;nan
15229;BME280;7717;47.792;12.076;2023-02-11T09:23:25;97749.06;;;3.38;nan
15229;BME280;7717;47.792;12.076;2023-02-11T09:25:50;97769.22;;;3.53;nan
15229;BME280;7717;47.792;12.076;2023-02-11T09:28:16;97766.59;;;3.70;nan
15229;BME280;7717;47.792;12.076;2023-02-11T09:30:41;97770.94;;;3.90;nan
15229;BME280;7717;47.792;12.076;2023-02-11T09:33:06;97757.13;;;4.02;nan
15229;BME280;7717;47.792;12.076;2023-02-11T09:35:32;97762.81;;;4.33;nan
15229;BME280;7717;47.792;12.076;2023-02-11T09:37:58;97740.97;;;4.37;nan
15229;BME280;7717;47.792;12.076;2023-02-11T09:40:23;97723.34;;;4.58;nan
15229;BME280;7717;47.792;12.076;2023-02-11T09:42:52;97742.00;;;4.99;nan
15229;BME280;7717;47.792;12.076;2023-02-11T09:45:24;97757.59;;;5.09;nan
15229;BME280;7717;47.792;12.076;2023-02-11T09:47:54;97709.25;;;4.84;nan
15229;BME280;7717;47.792;12.076;2023-02-11T09:50:25;97710.22;;;4.29;nan
15229;BME280;7717;47.792;12.076;2023-02-11T09:53:25;97687.28;;;4.85;nan
15229;BME280;7717;47.792;12.076;2023-02-11T09:55:58;97703.81;;;4.96;nan
15229;BME280;7717;47.792;12.076;2023-02-11T09:58:27;97704.69;;;4.77;nan
15229;BME280;7717;47.792;12.076;2023-02-11T10:17:47;97765.78;;;4.82;nan
15229;BME280;7717;47.792;12.076;2023-02-11T10:20:24;97783.03;;;4.51;nan
15229;BME280;7717;47.792;12.076;2023-02-11T10:22:57;97790.06;;;4.96;nan
15229;BME280;7717;47.792;12.076;2023-02-11T10:25:27;97738.91;;;5.07;nan
15229;BME280;7717;47.792;12.076;2023-02-11T10:27:56;97731.22;;;4.64;nan
15229;BME280;7717;47.792;12.076;2023-02-11T10:30:36;97711.63;;;5.22;nan
15229;BME280;7717;47.792;12.076;2023-02-11T10:33:20;97714.13;;;5.20;nan
15229;BME280;7717;47.792;12.076;2023-02-11T10:35:48;97692.53;;;5.11;nan
15229;BME280;7717;47.792;12.076;2023-02-11T10:38:13;97655.44;;;5.79;nan
15229;BME280;7717;47.792;12.076;2023-02-11T10:40:39;97660.88;;;5.66;nan
15229;BME280;7717;47.792;12.076;2023-02-11T10:43:09;97632.72;;;6.05;nan
15229;BME280;7717;47.792;12.076;2023-02-11T10:45:38;97603.25;;;6.34;nan
15229;BME280;7717;47.792;12.076;2023-02-11T10:51:27;97556.59;;;7.99;nan
15229;BME280;7717;47.792;12.076;2023-02-11T10:56:33;97597.97;;;6.79;nan
15229;BME280;7717;47.792;12.076;2023-02-11T10:59:31;97579.97;;;6.73;nan
15229;BME280;7717;47.792;12.076;2023-02-11T11:02:03;97576.34;;;6.66;nan
15229;BME280;7717;47.792;12.076;2023-02-11T11:04:42;97552.03;;;6.75;nan
15229;BME280;7717;47.792;12.076;2023-02-11T11:07:17;97438.91;;;9.70;nan
15229;BME280;7717;47.792;12.076;2023-02-11T11:09:50;97441.19;;;11.11;nan
15229;BME280;7717;47.792;12.076;2023-02-11T11:12:44;97382.72;;;12.38;nan
15229;BME280;7717;47.792;12.076;2023-02-11T11:15:27;97301.00;;;14.67;nan
15229;BME280;7717;47.792;12.076;2023-02-11T11:18:15;97295.06;;;13.78;nan
15229;BME280;7717;47.792;12.076;2023-02-11T11:20:58;97427.16;;;12.33;nan
15229;BME280;7717;47.792;12.076;2023-02-11T11:23:25;97566.06;;;9.79;nan
15229;BME280;7717;47.792;12.076;2023-02-11T11:26:05;97478.38;;;10.32;nan
15229;BME280;7717;47.792;12.076;2023-02-11T11:28:50;97316.47;;;13.54;nan
15229;BME280;7717;47.792;12.076;2023-02-11T11:31:21;97300.88;;;13.06;nan
15229;BME280;7717;47.792;12.076;2023-02-11T11:33:47;97393.63;;;13.46;nan
15229;BME280;7717;47.792;12.076;2023-02-11T11:36:15;97431.69;;;12.62;nan
15229;BME280;7717;47.792;12.076;2023-02-11T11:38:54;97403.16;;;13.71;nan
15229;BME280;7717;47.792;12.076;2023-02-11T11:41:28;97413.50;;;14.14;nan
15229;BME280;7717;47.792;12.076;2023-02-11T11:43:57;97371.91;;;15.79;nan
15229;BME280;7717;47.792;12.076;2023-02-11T11:46:29;97346.63;;;17.76;nan
15229;BME280;7717;47.792;12.076;2023-02-11T11:49:22;97376.50;;;13.59;nan
15229;BME280;7717;47.792;12.076;2023-02-11T11:51:51;97505.41;;;12.75;nan
15229;BME280;7717;47.792;12.076;2023-02-11T11:54:19;97373.16;;;14.03;nan
15229;BME280;7717;47.792;12.076;2023-02-11T11:57:01;97442.72;;;14.82;nan
15229;BME280;7717;47.792;12.076;2023-02-11T11:59:28;97492.81;;;13.09;nan
15229;BME280;7717;47.792;12.076;2023-02-11T12:15:31;97501.03;;;10.59;nan
15229;BME280;7717;47.792;12.076;2023-02-11T12:18:29;97495.00;;;10.54;nan
15229;BME280;7717;47.792;12.076;2023-02-11T12:23:55;97567.06;;;10.77;nan
15229;BME280;7717;47.792;12.076;2023-02-11T12:26:56;97557.56;;;10.24;nan
15229;BME280;7717;47.792;12.076;2023-02-11T12:29:53;97526.81;;;10.70;nan
15229;BME280;7717;47.792;12.076;2023-02-11T12:32:30;97561.34;;;10.42;nan
15229;BME280;7717;47.792;12.076;2023-02-11T12:40:44;97567.47;;;9.65;nan
15229;BME280;7717;47.792;12.076;2023-02-11T12:43:23;97547.44;;;9.07;nan
15229;BME280;7717;47.792;12.076;2023-02-11T12:46:18;97560.47;;;9.18;nan
15229;BME280;7717;47.792;12.076;2023-02-11T12:54:23;97478.59;;;9.12;nan
15229;BME280;7717;47.792;12.076;2023-02-11T12:57:05;97514.34;;;8.74;nan
15229;BME280;7717;47.792;12.076;2023-02-11T13:05:27;97603.72;;;7.83;nan
15229;BME280;7717;47.792;12.076;2023-02-11T13:08:18;97621.38;;;8.05;nan
15229;BME280;7717;47.792;12.076;2023-02-11T13:10:53;97558.22;;;7.97;nan
15229;BME280;7717;47.792;12.076;2023-02-11T13:13:53;97576.72;;;8.50;nan
15229;BME280;7717;47.792;12.076;2023-02-11T13:16:42;97619.31;;;8.54;nan
15229;BME280;7717;47.792;12.076;2023-02-11T13:19:43;97545.78;;;8.39;nan
15229;BME280;7717;47.792;12.076;2023-02-11T13:22:38;97598.84;;;8.85;nan
15229;BME280;7717;47.792;12.076;2023-02-11T13:25:42;97622.34;;;8.41;nan
15229;BME280;7717;47.792;12.076;2023-02-11T13:28:41;97556.19;;;8.15;nan
15229;BME280;7717;47.792;12.076;2023-02-11T13:31:10;97569.63;;;8.41;nan
15229;BME280;7717;47.792;12.076;2023-02-11T13:33:40;97566.81;;;8.64;nan
15229;BME280;7717;47.792;12.076;2023-02-11T13:36:13;97612.16;;;8.73;nan
15229;BME280;7717;47.792;12.076;2023-02-11T13:38:40;97615.41;;;8.67;nan
15229;BME280;7717;47.792;12.076;2023-02-11T13:41:28;97508.44;;;8.43;nan
15229;BME280;7717;47.792;12.076;2023-02-11T13:44:00;97525.50;;;8.79;nan
15229;BME280;7717;47.792;12.076;2023-02-11T13:46:28;97548.00;;;8.95;nan
15229;BME280;7717;47.792;12.076;2023-02-11T13:48:55;97581.03;;;9.23;nan
15229;BME280;7717;47.792;12.076;2023-02-11T13:51:40;97519.00;;;9.28;nan
15229;BME280;7717;47.792;12.076;2023-02-11T13:54:06;97589.31;;;9.50;nan
15229;BME280;7717;47.792;12.076;2023-02-11T13:56:35;97566.59;;;8.88;nan
15229;BME280;7717;47.792;12.076;2023-02-11T13:59:42;97595.59;;;8.92;nan
15229;BME280;7717;47.792;12.076;2023-02-11T14:02:04;97572.50;;;9.22;nan
15229;BME280;7717;47.792;12.076;2023-02-11T14:05:23;97479.63;;;8.82;nan
15229;BME280;7717;47.792;12.076;2023-02-11T14:11:01;97551.06;;;8.45;nan
15229;BME280;7717;47.792;12.076;2023-02-11T14:13:32;97536.06;;;8.59;nan
15229;BME280;7717;47.792;12.076;2023-02-11T14:16:08;97507.09;;;8.91;nan
15229;BME280;7717;47.792;12.076;2023-02-11T14:21:18;97546.13;;;9.63;nan
15229;BME280;7717;47.792;12.076;2023-02-11T14:23:46;97554.41;;;9.94;nan
15229;BME280;7717;47.792;12.076;2023-02-11T14:29:17;97421.25;;;10.87;nan
15229;BME280;7717;47.792;12.076;2023-02-11T14:34:39;97395.50;;;12.29;nan
15229;BME280;7717;47.792;12.076;2023-02-11T14:42:38;97463.28;;;10.44;nan
15229;BME280;7717;47.792;12.076;2023-02-11T14:45:07;97451.53;;;9.61;nan
15229;BME280;7717;47.792;12.076;2023-02-11T14:47:48;97498.59;;;9.30;nan
15229;BME280;7717;47.792;12.076;2023-02-11T14:50:24;97552.28;;;9.31;nan
15229;BME280;7717;47.792;12.076;2023-02-11T14:52:51;97546.88;;;8.82;nan
15229;BME280;7717;47.792;12.076;2023-02-11T14:55:33;97499.28;;;8.85;nan
15229;BME280;7717;47.792;12.076;2023-02-11T14:58:06;97543.41;;;8.80;nan
15229;BME280;7717;47.792;12.076;2023-02-11T15:00:35;97586.16;;;8.88;nan
15229;BME280;7717;47.792;12.076;2023-02-11T15:03:01;97521.38;;;8.49;nan
15229;BME280;7717;47.792;12.076;2023-02-11T15:05:30;97538.50;;;8.21;nan
15229;BME280;7717;47.792;12.076;2023-02-11T15:08:01;97553.16;;;7.98;nan
15229;BME280;7717;47.792;12.076;2023-02-11T15:10:42;97525.94;;;7.67;nan
15229;BME280;7717;47.792;12.076;2023-02-11T15:13:17;97582.81;;;7.64;nan
15229;BME280;7717;47.792;12.076;2023-02-11T15:15:44;97593.47;;;7.52;nan
15229;BME280;7717;47.792;12.076;2023-02-11T15:18:18;97585.31;;;7.35;nan
15229;BME280;7717;47.792;12.076;2023-02-11T15:20:48;97611.47;;;7.30;nan
15229;BME280;7717;47.792;12.076;2023-02-11T15:23:35;97572.56;;;7.07;nan
15229;BME280;7717;47.792;12.076;2023-02-11T15:26:01;97636.97;;;7.04;nan
15229;BME280;7717;47.792;12.076;2023-02-11T15:28:33;97611.16;;;6.93;nan
15229;BME280;7717;47.792;12.076;2023-02-11T15:31:04;97676.13;;;7.08;nan